sensor_id;sensor_type;location;lat;lon;timestamp;pressure;altitude;pressure_sealevel;temperature;humidity
68506;BME280;55509;50.680;17.942;2023-01-08T00:00:19;99540.44;;;3.27;93.04
68506;BME280;55509;50.680;17.942;2023-01-08T00:03:41;99534.86;;;3.25;92.95
68506;BME280;55509;50.680;17.942;2023-01-08T00:06:43;99535.05;;;3.25;92.79
68506;BME280;55509;50.680;17.942;2023-01-08T00:09:44;99535.73;;;3.26;92.84
68506;BME280;55509;50.680;17.942;2023-01-08T00:12:48;99536.44;;;3.25;92.57
68506;BME280;55509;50.680;17.942;2023-01-08T00:15:49;99528.27;;;3.23;92.67
68506;BME280;55509;50.680;17.942;2023-01-08T00:18:51;99522.02;;;3.22;92.65
68506;BME280;55509;50.680;17.942;2023-01-08T00:21:53;99514.55;;;3.25;92.81
68506;BME280;55509;50.680;17.942;2023-01-08T00:24:54;99509.33;;;3.28;92.80
68506;BME280;55509;50.680;17.942;2023-01-08T00:27:55;99503.77;;;3.31;92.89
68506;BME280;55509;50.680;17.942;2023-01-08T00:30:57;99498.90;;;3.32;92.82
68506;BME280;55509;50.680;17.942;2023-01-08T00:33:59;99498.36;;;3.34;92.76
68506;BME280;55509;50.680;17.942;2023-01-08T00:37:00;99498.18;;;3.39;93.04
68506;BME280;55509;50.680;17.942;2023-01-08T00:40:02;99497.13;;;3.46;92.98
68506;BME280;55509;50.680;17.942;2023-01-08T00:43:04;99496.60;;;3.52;92.88
68506;BME280;55509;50.680;17.942;2023-01-08T00:46:05;99494.66;;;3.58;92.99
68506;BME280;55509;50.680;17.942;2023-01-08T00:49:07;99489.98;;;3.60;92.97
68506;BME280;55509;50.680;17.942;2023-01-08T00:52:09;99486.13;;;3.65;92.97
68506;BME280;55509;50.680;17.942;2023-01-08T00:55:10;99483.85;;;3.70;92.89
68506;BME280;55509;50.680;17.942;2023-01-08T00:58:12;99480.52;;;3.76;92.95
68506;BME280;55509;50.680;17.942;2023-01-08T01:01:13;99475.10;;;3.81;93.04
68506;BME280;55509;50.680;17.942;2023-01-08T01:04:15;99475.60;;;3.88;92.86
68506;BME280;55509;50.680;17.942;2023-01-08T01:07:17;99474.36;;;3.94;92.92
68506;BME280;55509;50.680;17.942;2023-01-08T01:10:19;99473.46;;;4.00;92.87
68506;BME280;55509;50.680;17.942;2023-01-08T01:13:20;99475.70;;;4.07;92.78
68506;BME280;55509;50.680;17.942;2023-01-08T01:16:22;99478.97;;;4.13;92.93
68506;BME280;55509;50.680;17.942;2023-01-08T01:19:23;99468.14;;;4.19;92.75
68506;BME280;55509;50.680;17.942;2023-01-08T01:22:25;99465.14;;;4.26;92.89
68506;BME280;55509;50.680;17.942;2023-01-08T01:25:26;99468.06;;;4.33;92.74
68506;BME280;55509;50.680;17.942;2023-01-08T01:28:28;99459.67;;;4.38;92.65
68506;BME280;55509;50.680;17.942;2023-01-08T01:31:30;99466.43;;;4.43;92.44
68506;BME280;55509;50.680;17.942;2023-01-08T01:34:32;99465.38;;;4.45;92.24
68506;BME280;55509;50.680;17.942;2023-01-08T01:37:33;99463.44;;;4.48;92.48
68506;BME280;55509;50.680;17.942;2023-01-08T01:40:39;99467.25;;;4.53;92.37
68506;BME280;55509;50.680;17.942;2023-01-08T01:43:41;99463.74;;;4.55;92.42
68506;BME280;55509;50.680;17.942;2023-01-08T01:46:43;99459.55;;;4.56;92.64
68506;BME280;55509;50.680;17.942;2023-01-08T01:49:49;99462.32;;;4.59;92.62
68506;BME280;55509;50.680;17.942;2023-01-08T01:55:57;99462.63;;;4.65;92.82
68506;BME280;55509;50.680;17.942;2023-01-08T01:59:01;99462.60;;;4.68;92.82
68506;BME280;55509;50.680;17.942;2023-01-08T02:02:02;99463.63;;;4.72;93.07
68506;BME280;55509;50.680;17.942;2023-01-08T02:05:04;99465.33;;;4.77;93.28
68506;BME280;55509;50.680;17.942;2023-01-08T02:08:07;99455.69;;;4.84;93.29
68506;BME280;55509;50.680;17.942;2023-01-08T02:11:11;99448.67;;;4.89;92.96
68506;BME280;55509;50.680;17.942;2023-01-08T02:17:31;99444.45;;;4.94;92.95
68506;BME280;55509;50.680;17.942;2023-01-08T02:20:59;99440.09;;;4.95;92.69
68506;BME280;55509;50.680;17.942;2023-01-08T02:24:04;99441.45;;;4.98;92.80
68506;BME280;55509;50.680;17.942;2023-01-08T02:27:11;99434.47;;;4.99;92.78
68506;BME280;55509;50.680;17.942;2023-01-08T02:30:13;99435.52;;;4.98;92.58
68506;BME280;55509;50.680;17.942;2023-01-08T02:33:15;99436.55;;;4.99;92.76
68506;BME280;55509;50.680;17.942;2023-01-08T02:39:36;99435.38;;;4.95;92.41
68506;BME280;55509;50.680;17.942;2023-01-08T02:42:50;99434.52;;;4.93;92.49
68506;BME280;55509;50.680;17.942;2023-01-08T02:45:56;99435.77;;;4.92;92.72
68506;BME280;55509;50.680;17.942;2023-01-08T02:49:00;99431.04;;;4.93;92.99
68506;BME280;55509;50.680;17.942;2023-01-08T02:52:03;99428.93;;;4.93;92.61
68506;BME280;55509;50.680;17.942;2023-01-08T02:55:07;99423.89;;;4.93;92.73
68506;BME280;55509;50.680;17.942;2023-01-08T02:58:10;99423.54;;;4.93;93.02
68506;BME280;55509;50.680;17.942;2023-01-08T03:01:13;99423.52;;;4.96;92.92
68506;BME280;55509;50.680;17.942;2023-01-08T03:04:18;99432.20;;;4.99;92.74
68506;BME280;55509;50.680;17.942;2023-01-08T03:07:20;99438.98;;;5.02;92.96
68506;BME280;55509;50.680;17.942;2023-01-08T03:10:22;99438.80;;;5.02;92.77
68506;BME280;55509;50.680;17.942;2023-01-08T03:13:26;99439.29;;;5.05;93.00
68506;BME280;55509;50.680;17.942;2023-01-08T03:22:35;99427.10;;;5.22;93.08
68506;BME280;55509;50.680;17.942;2023-01-08T03:25:38;99432.81;;;5.26;92.42
68506;BME280;55509;50.680;17.942;2023-01-08T03:28:43;99429.48;;;5.27;92.29
68506;BME280;55509;50.680;17.942;2023-01-08T03:31:46;99428.26;;;5.29;92.35
68506;BME280;55509;50.680;17.942;2023-01-08T03:34:49;99421.42;;;5.30;91.91
68506;BME280;55509;50.680;17.942;2023-01-08T03:37:54;99414.98;;;5.31;92.21
68506;BME280;55509;50.680;17.942;2023-01-08T03:40:58;99410.42;;;5.33;91.84
68506;BME280;55509;50.680;17.942;2023-01-08T03:44:02;99401.68;;;5.35;91.75
68506;BME280;55509;50.680;17.942;2023-01-08T03:47:04;99404.84;;;5.33;91.77
68506;BME280;55509;50.680;17.942;2023-01-08T03:50:08;99410.78;;;5.32;91.71
68506;BME280;55509;50.680;17.942;2023-01-08T03:53:11;99406.25;;;5.32;91.72
68506;BME280;55509;50.680;17.942;2023-01-08T03:56:14;99404.52;;;5.29;91.51
68506;BME280;55509;50.680;17.942;2023-01-08T03:59:16;99393.05;;;5.28;91.52
68506;BME280;55509;50.680;17.942;2023-01-08T04:02:17;99396.19;;;5.28;91.81
68506;BME280;55509;50.680;17.942;2023-01-08T04:05:19;99395.31;;;5.28;91.66
68506;BME280;55509;50.680;17.942;2023-01-08T04:08:21;99398.95;;;5.30;91.51
68506;BME280;55509;50.680;17.942;2023-01-08T04:11:22;99401.39;;;5.30;91.76
68506;BME280;55509;50.680;17.942;2023-01-08T04:14:24;99408.02;;;5.30;91.45
68506;BME280;55509;50.680;17.942;2023-01-08T04:17:25;99407.34;;;5.28;91.23
68506;BME280;55509;50.680;17.942;2023-01-08T04:20:27;99409.09;;;5.26;91.57
68506;BME280;55509;50.680;17.942;2023-01-08T04:23:28;99407.02;;;5.25;91.27
68506;BME280;55509;50.680;17.942;2023-01-08T04:26:30;99402.50;;;5.24;91.49
68506;BME280;55509;50.680;17.942;2023-01-08T04:29:32;99394.84;;;5.21;91.38
68506;BME280;55509;50.680;17.942;2023-01-08T04:32:33;99393.29;;;5.20;91.56
68506;BME280;55509;50.680;17.942;2023-01-08T04:35:35;99390.31;;;5.22;91.68
68506;BME280;55509;50.680;17.942;2023-01-08T04:38:36;99392.05;;;5.22;91.78
68506;BME280;55509;50.680;17.942;2023-01-08T04:41:38;99392.06;;;5.22;91.82
68506;BME280;55509;50.680;17.942;2023-01-08T04:44:39;99386.48;;;5.21;91.48
68506;BME280;55509;50.680;17.942;2023-01-08T04:47:41;99385.79;;;5.21;91.53
68506;BME280;55509;50.680;17.942;2023-01-08T04:50:42;99380.02;;;5.21;91.50
68506;BME280;55509;50.680;17.942;2023-01-08T04:53:44;99380.36;;;5.23;91.36
68506;BME280;55509;50.680;17.942;2023-01-08T04:56:48;99379.14;;;5.24;91.47
68506;BME280;55509;50.680;17.942;2023-01-08T04:59:51;99373.57;;;5.23;91.52
68506;BME280;55509;50.680;17.942;2023-01-08T05:02:53;99363.27;;;5.25;91.75
68506;BME280;55509;50.680;17.942;2023-01-08T05:05:55;99348.61;;;5.26;91.42
68506;BME280;55509;50.680;17.942;2023-01-08T05:08:56;99345.65;;;5.26;91.47
68506;BME280;55509;50.680;17.942;2023-01-08T05:11:58;99350.52;;;5.26;91.45
68506;BME280;55509;50.680;17.942;2023-01-08T05:14:59;99349.64;;;5.26;91.29
68506;BME280;55509;50.680;17.942;2023-01-08T05:18:02;99344.41;;;5.28;91.47
68506;BME280;55509;50.680;17.942;2023-01-08T05:21:04;99347.17;;;5.29;91.44
68506;BME280;55509;50.680;17.942;2023-01-08T05:24:05;99345.77;;;5.30;91.08
68506;BME280;55509;50.680;17.942;2023-01-08T05:27:07;99341.58;;;5.30;91.37
68506;BME280;55509;50.680;17.942;2023-01-08T05:30:09;99337.75;;;5.30;91.04
68506;BME280;55509;50.680;17.942;2023-01-08T05:33:11;99341.77;;;5.30;91.06
68506;BME280;55509;50.680;17.942;2023-01-08T05:36:12;99352.91;;;5.30;91.16
68506;BME280;55509;50.680;17.942;2023-01-08T05:39:14;99357.11;;;5.29;91.04
68506;BME280;55509;50.680;17.942;2023-01-08T05:42:15;99361.27;;;5.30;91.16
68506;BME280;55509;50.680;17.942;2023-01-08T05:45:17;99355.70;;;5.30;90.92
68506;BME280;55509;50.680;17.942;2023-01-08T05:48:18;99353.10;;;5.29;90.93
68506;BME280;55509;50.680;17.942;2023-01-08T05:51:20;99352.06;;;5.29;90.94
68506;BME280;55509;50.680;17.942;2023-01-08T05:54:21;99350.68;;;5.27;90.95
68506;BME280;55509;50.680;17.942;2023-01-08T05:57:23;99345.65;;;5.26;90.75
68506;BME280;55509;50.680;17.942;2023-01-08T06:00:24;99343.23;;;5.24;90.76
68506;BME280;55509;50.680;17.942;2023-01-08T06:03:26;99333.49;;;5.21;91.00
68506;BME280;55509;50.680;17.942;2023-01-08T06:06:28;99324.45;;;5.19;90.68
68506;BME280;55509;50.680;17.942;2023-01-08T06:09:29;99318.20;;;5.17;90.90
68506;BME280;55509;50.680;17.942;2023-01-08T06:12:31;99319.96;;;5.16;90.75
68506;BME280;55509;50.680;17.942;2023-01-08T06:15:33;99322.23;;;5.14;90.88
68506;BME280;55509;50.680;17.942;2023-01-08T06:18:34;99314.92;;;5.14;90.59
68506;BME280;55509;50.680;17.942;2023-01-08T06:21:36;99315.48;;;5.11;90.92
68506;BME280;55509;50.680;17.942;2023-01-08T06:24:37;99319.52;;;5.08;90.83
68506;BME280;55509;50.680;17.942;2023-01-08T06:27:39;99317.61;;;5.08;90.78
68506;BME280;55509;50.680;17.942;2023-01-08T06:30:40;99313.42;;;5.09;90.77
68506;BME280;55509;50.680;17.942;2023-01-08T06:33:42;99317.42;;;5.09;90.61
68506;BME280;55509;50.680;17.942;2023-01-08T06:36:43;99318.64;;;5.09;90.53
68506;BME280;55509;50.680;17.942;2023-01-08T06:39:45;99318.64;;;5.10;90.46
68506;BME280;55509;50.680;17.942;2023-01-08T06:42:46;99318.29;;;5.10;90.24
68506;BME280;55509;50.680;17.942;2023-01-08T06:45:54;99312.88;;;5.10;90.26
68506;BME280;55509;50.680;17.942;2023-01-08T06:48:58;99304.85;;;5.11;90.27
68506;BME280;55509;50.680;17.942;2023-01-08T06:52:00;99301.88;;;5.12;90.43
68506;BME280;55509;50.680;17.942;2023-01-08T06:55:01;99298.38;;;5.14;90.15
68506;BME280;55509;50.680;17.942;2023-01-08T06:58:05;99293.84;;;5.14;90.45
68506;BME280;55509;50.680;17.942;2023-01-08T07:01:09;99288.23;;;5.18;90.03
68506;BME280;55509;50.680;17.942;2023-01-08T07:04:12;99289.38;;;5.22;89.89
68506;BME280;55509;50.680;17.942;2023-01-08T07:07:14;99301.36;;;5.26;89.85
68506;BME280;55509;50.680;17.942;2023-01-08T07:10:15;99299.88;;;5.34;89.43
68506;BME280;55509;50.680;17.942;2023-01-08T07:13:17;99300.84;;;5.40;89.09
68506;BME280;55509;50.680;17.942;2023-01-08T07:16:18;99309.82;;;5.46;88.76
68506;BME280;55509;50.680;17.942;2023-01-08T07:19:20;99299.25;;;5.55;88.24
68506;BME280;55509;50.680;17.942;2023-01-08T07:22:21;99293.86;;;5.66;87.54
68506;BME280;55509;50.680;17.942;2023-01-08T07:25:24;99288.27;;;5.78;87.03
68506;BME280;55509;50.680;17.942;2023-01-08T07:28:26;99287.63;;;6.10;86.04
68506;BME280;55509;50.680;17.942;2023-01-08T07:31:27;99278.45;;;6.48;84.77
68506;BME280;55509;50.680;17.942;2023-01-08T07:34:29;99275.76;;;6.42;84.18
68506;BME280;55509;50.680;17.942;2023-01-08T07:37:30;99275.51;;;6.26;84.26
68506;BME280;55509;50.680;17.942;2023-01-08T07:40:32;99270.45;;;6.15;84.49
68506;BME280;55509;50.680;17.942;2023-01-08T07:43:34;99269.50;;;6.09;84.71
68506;BME280;55509;50.680;17.942;2023-01-08T07:46:35;99265.53;;;6.07;85.27
68506;BME280;55509;50.680;17.942;2023-01-08T07:49:37;99274.05;;;6.08;85.00
68506;BME280;55509;50.680;17.942;2023-01-08T07:52:38;99272.91;;;6.14;84.66
68506;BME280;55509;50.680;17.942;2023-01-08T07:55:40;99264.08;;;6.20;84.58
68506;BME280;55509;50.680;17.942;2023-01-08T07:58:41;99257.17;;;6.36;84.21
68506;BME280;55509;50.680;17.942;2023-01-08T08:01:43;99260.77;;;6.70;83.21
68506;BME280;55509;50.680;17.942;2023-01-08T08:04:44;99255.95;;;7.18;81.62
68506;BME280;55509;50.680;17.942;2023-01-08T08:07:46;99257.25;;;7.55;79.87
68506;BME280;55509;50.680;17.942;2023-01-08T08:10:47;99254.11;;;7.63;79.02
68506;BME280;55509;50.680;17.942;2023-01-08T08:13:49;99253.66;;;7.51;78.78
68506;BME280;55509;50.680;17.942;2023-01-08T08:16:50;99247.91;;;7.50;78.71
68506;BME280;55509;50.680;17.942;2023-01-08T08:19:52;99249.05;;;7.45;78.83
68506;BME280;55509;50.680;17.942;2023-01-08T08:23:03;99243.86;;;7.27;79.20
68506;BME280;55509;50.680;17.942;2023-01-08T08:26:05;99234.66;;;7.08;79.92
68506;BME280;55509;50.680;17.942;2023-01-08T08:29:08;99234.06;;;6.94;80.14
68506;BME280;55509;50.680;17.942;2023-01-08T08:32:09;99240.02;;;6.84;81.01
68506;BME280;55509;50.680;17.942;2023-01-08T08:35:11;99234.05;;;6.77;81.44
68506;BME280;55509;50.680;17.942;2023-01-08T08:38:12;99239.89;;;6.73;81.67
68506;BME280;55509;50.680;17.942;2023-01-08T08:41:15;99234.02;;;6.70;81.68
68506;BME280;55509;50.680;17.942;2023-01-08T08:44:17;99233.33;;;6.69;81.86
68506;BME280;55509;50.680;17.942;2023-01-08T08:47:18;99217.23;;;6.71;81.89
68506;BME280;55509;50.680;17.942;2023-01-08T08:50:20;99211.36;;;6.75;81.47
68506;BME280;55509;50.680;17.942;2023-01-08T08:53:22;99212.05;;;6.85;81.26
68506;BME280;55509;50.680;17.942;2023-01-08T08:56:24;99211.84;;;6.95;80.87
68506;BME280;55509;50.680;17.942;2023-01-08T08:59:26;99209.66;;;7.08;80.70
68506;BME280;55509;50.680;17.942;2023-01-08T09:02:27;99205.41;;;7.26;79.77
68506;BME280;55509;50.680;17.942;2023-01-08T09:05:29;99206.41;;;7.36;79.52
68506;BME280;55509;50.680;17.942;2023-01-08T09:08:31;99205.27;;;7.62;78.67
68506;BME280;55509;50.680;17.942;2023-01-08T09:11:32;99208.27;;;8.32;77.10
68506;BME280;55509;50.680;17.942;2023-01-08T09:14:34;99208.68;;;8.89;74.62
68506;BME280;55509;50.680;17.942;2023-01-08T09:17:35;99200.27;;;8.95;73.46
68506;BME280;55509;50.680;17.942;2023-01-08T09:20:37;99201.49;;;8.76;73.18
68506;BME280;55509;50.680;17.942;2023-01-08T09:23:38;99196.17;;;8.53;73.66
68506;BME280;55509;50.680;17.942;2023-01-08T09:26:40;99195.33;;;8.32;74.25
68506;BME280;55509;50.680;17.942;2023-01-08T09:29:41;99195.59;;;8.15;74.77
68506;BME280;55509;50.680;17.942;2023-01-08T09:32:43;99193.50;;;8.01;75.25
68506;BME280;55509;50.680;17.942;2023-01-08T09:35:44;99186.36;;;7.92;75.57
68506;BME280;55509;50.680;17.942;2023-01-08T09:38:45;99179.67;;;7.87;75.79
68506;BME280;55509;50.680;17.942;2023-01-08T09:41:47;99174.56;;;7.81;76.20
68506;BME280;55509;50.680;17.942;2023-01-08T09:44:49;99167.50;;;7.76;76.17
68506;BME280;55509;50.680;17.942;2023-01-08T09:47:52;99170.91;;;7.73;76.47
68506;BME280;55509;50.680;17.942;2023-01-08T09:50:54;99170.42;;;7.72;76.28
68506;BME280;55509;50.680;17.942;2023-01-08T09:53:56;99171.42;;;7.66;76.67
68506;BME280;55509;50.680;17.942;2023-01-08T09:56:58;99171.92;;;7.67;76.75
68506;BME280;55509;50.680;17.942;2023-01-08T10:00:00;99175.58;;;7.75;76.48
68506;BME280;55509;50.680;17.942;2023-01-08T10:03:02;99168.89;;;7.77;76.24
68506;BME280;55509;50.680;17.942;2023-01-08T10:06:07;99160.90;;;7.81;76.14
68506;BME280;55509;50.680;17.942;2023-01-08T10:09:11;99153.96;;;7.99;75.75
68506;BME280;55509;50.680;17.942;2023-01-08T10:12:14;99148.66;;;8.21;74.69
68506;BME280;55509;50.680;17.942;2023-01-08T10:15:18;99150.16;;;8.43;74.73
68506;BME280;55509;50.680;17.942;2023-01-08T10:18:20;99156.26;;;8.71;74.07
68506;BME280;55509;50.680;17.942;2023-01-08T10:21:26;99149.50;;;8.98;74.11
68506;BME280;55509;50.680;17.942;2023-01-08T10:24:33;99153.02;;;9.27;72.95
68506;BME280;55509;50.680;17.942;2023-01-08T10:27:38;99145.86;;;9.42;71.94
68506;BME280;55509;50.680;17.942;2023-01-08T10:30:45;99146.02;;;9.54;71.63
68506;BME280;55509;50.680;17.942;2023-01-08T10:33:47;99140.41;;;9.59;70.67
68506;BME280;55509;50.680;17.942;2023-01-08T10:36:49;99138.47;;;9.65;70.25
68506;BME280;55509;50.680;17.942;2023-01-08T10:39:53;99135.84;;;9.75;69.84
68506;BME280;55509;50.680;17.942;2023-01-08T10:42:55;99129.52;;;9.81;69.47
68506;BME280;55509;50.680;17.942;2023-01-08T10:46:00;99131.74;;;9.82;69.07
68506;BME280;55509;50.680;17.942;2023-01-08T10:49:02;99119.75;;;9.84;69.31
68506;BME280;55509;50.680;17.942;2023-01-08T10:52:18;99117.86;;;9.94;68.77
68506;BME280;55509;50.680;17.942;2023-01-08T10:55:34;99112.11;;;9.97;68.51
68506;BME280;55509;50.680;17.942;2023-01-08T10:58:41;99112.09;;;10.08;69.20
68506;BME280;55509;50.680;17.942;2023-01-08T11:01:45;99113.64;;;10.19;68.23
68506;BME280;55509;50.680;17.942;2023-01-08T11:04:48;99104.30;;;10.24;69.04
68506;BME280;55509;50.680;17.942;2023-01-08T11:07:55;99100.85;;;10.32;68.29
68506;BME280;55509;50.680;17.942;2023-01-08T11:10:57;99098.54;;;10.28;67.61
68506;BME280;55509;50.680;17.942;2023-01-08T11:14:00;99097.74;;;10.16;67.98
68506;BME280;55509;50.680;17.942;2023-01-08T11:17:09;99099.59;;;10.14;68.67
68506;BME280;55509;50.680;17.942;2023-01-08T11:20:19;99096.94;;;10.13;68.45
68506;BME280;55509;50.680;17.942;2023-01-08T11:23:22;99099.46;;;10.12;67.72
68506;BME280;55509;50.680;17.942;2023-01-08T11:26:24;99093.02;;;10.05;67.62
68506;BME280;55509;50.680;17.942;2023-01-08T11:29:28;99099.15;;;10.01;67.69
68506;BME280;55509;50.680;17.942;2023-01-08T11:35:40;99088.38;;;10.03;68.36
68506;BME280;55509;50.680;17.942;2023-01-08T11:38:42;99085.14;;;10.15;68.43
68506;BME280;55509;50.680;17.942;2023-01-08T12:07:13;99069.14;;;10.10;66.73
68506;BME280;55509;50.680;17.942;2023-01-08T12:10:26;99067.36;;;10.06;66.74
68506;BME280;55509;50.680;17.942;2023-01-08T12:30:04;99057.52;;;9.96;66.80
68506;BME280;55509;50.680;17.942;2023-01-08T12:33:16;99056.00;;;9.89;67.19
68506;BME280;55509;50.680;17.942;2023-01-08T12:36:28;99058.14;;;9.88;66.58
68506;BME280;55509;50.680;17.942;2023-01-08T12:39:32;99048.46;;;9.88;66.69
68506;BME280;55509;50.680;17.942;2023-01-08T12:42:40;99043.61;;;9.87;67.27
68506;BME280;55509;50.680;17.942;2023-01-08T12:45:45;99050.63;;;9.87;67.77
68506;BME280;55509;50.680;17.942;2023-01-08T12:48:48;99059.54;;;9.88;67.56
68506;BME280;55509;50.680;17.942;2023-01-08T12:52:07;99071.81;;;9.89;67.36
68506;BME280;55509;50.680;17.942;2023-01-08T12:55:16;99070.09;;;9.83;67.43
68506;BME280;55509;50.680;17.942;2023-01-08T12:58:25;99065.27;;;9.70;68.00
68506;BME280;55509;50.680;17.942;2023-01-08T13:04:50;99055.59;;;9.50;68.88
68506;BME280;55509;50.680;17.942;2023-01-08T13:07:52;99062.67;;;9.42;69.13
68506;BME280;55509;50.680;17.942;2023-01-08T13:10:54;99067.05;;;9.32;69.15
68506;BME280;55509;50.680;17.942;2023-01-08T13:13:59;99064.48;;;9.20;69.35
68506;BME280;55509;50.680;17.942;2023-01-08T13:17:06;99064.31;;;9.08;70.01
68506;BME280;55509;50.680;17.942;2023-01-08T13:20:19;99066.52;;;8.99;70.30
68506;BME280;55509;50.680;17.942;2023-01-08T13:23:25;99060.82;;;8.91;70.66
68506;BME280;55509;50.680;17.942;2023-01-08T13:26:28;99058.39;;;8.85;70.97
68506;BME280;55509;50.680;17.942;2023-01-08T13:35:34;99053.21;;;8.58;71.75
68506;BME280;55509;50.680;17.942;2023-01-08T13:38:36;99061.71;;;8.56;72.06
68506;BME280;55509;50.680;17.942;2023-01-08T13:42:17;99064.16;;;8.55;71.86
68506;BME280;55509;50.680;17.942;2023-01-08T13:45:10;99059.84;;;8.46;71.57
68506;BME280;55509;50.680;17.942;2023-01-08T13:48:23;99063.66;;;8.35;71.93
68506;BME280;55509;50.680;17.942;2023-01-08T13:51:29;99056.09;;;8.25;72.06
68506;BME280;55509;50.680;17.942;2023-01-08T13:54:41;99048.55;;;8.13;72.19
68506;BME280;55509;50.680;17.942;2023-01-08T13:57:52;99038.27;;;7.98;72.40
68506;BME280;55509;50.680;17.942;2023-01-08T14:00:55;99031.61;;;7.86;72.75
68506;BME280;55509;50.680;17.942;2023-01-08T14:03:58;99028.41;;;7.74;73.51
68506;BME280;55509;50.680;17.942;2023-01-08T14:07:12;99021.38;;;7.63;74.02
68506;BME280;55509;50.680;17.942;2023-01-08T14:10:15;99017.47;;;7.51;74.36
68506;BME280;55509;50.680;17.942;2023-01-08T14:13:17;99009.48;;;7.43;74.77
68506;BME280;55509;50.680;17.942;2023-01-08T14:16:21;99010.44;;;7.32;75.25
68506;BME280;55509;50.680;17.942;2023-01-08T14:19:23;99019.47;;;7.21;75.34
68506;BME280;55509;50.680;17.942;2023-01-08T14:22:32;99016.69;;;7.13;75.99
68506;BME280;55509;50.680;17.942;2023-01-08T14:25:33;99007.09;;;7.05;75.81
68506;BME280;55509;50.680;17.942;2023-01-08T14:28:35;99008.71;;;6.96;76.27
68506;BME280;55509;50.680;17.942;2023-01-08T14:31:37;99001.92;;;6.87;76.86
68506;BME280;55509;50.680;17.942;2023-01-08T14:34:38;99003.83;;;6.80;76.74
68506;BME280;55509;50.680;17.942;2023-01-08T14:37:41;99003.67;;;6.72;77.02
68506;BME280;55509;50.680;17.942;2023-01-08T14:40:49;99011.54;;;6.64;77.43
68506;BME280;55509;50.680;17.942;2023-01-08T14:43:58;99014.66;;;6.58;77.85
68506;BME280;55509;50.680;17.942;2023-01-08T14:46:59;99007.27;;;6.53;77.71
68506;BME280;55509;50.680;17.942;2023-01-08T14:50:01;99012.14;;;6.45;78.26
68506;BME280;55509;50.680;17.942;2023-01-08T14:53:04;99004.98;;;6.37;78.47
68506;BME280;55509;50.680;17.942;2023-01-08T14:56:10;99003.36;;;6.32;78.75
68506;BME280;55509;50.680;17.942;2023-01-08T14:59:17;99011.81;;;6.29;78.37
68506;BME280;55509;50.680;17.942;2023-01-08T15:02:32;99006.64;;;6.26;78.93
68506;BME280;55509;50.680;17.942;2023-01-08T15:05:35;99000.59;;;6.22;79.04
68506;BME280;55509;50.680;17.942;2023-01-08T15:08:37;99001.71;;;6.19;78.94
68506;BME280;55509;50.680;17.942;2023-01-08T15:14:53;98993.00;;;6.17;78.82
68506;BME280;55509;50.680;17.942;2023-01-08T15:17:57;98982.02;;;6.17;79.02
68506;BME280;55509;50.680;17.942;2023-01-08T15:20:59;98968.90;;;6.18;78.95
68506;BME280;55509;50.680;17.942;2023-01-08T15:24:01;98960.09;;;6.21;78.69
68506;BME280;55509;50.680;17.942;2023-01-08T15:27:03;98957.47;;;6.22;78.70
68506;BME280;55509;50.680;17.942;2023-01-08T15:30:27;98957.98;;;6.22;78.24
68506;BME280;55509;50.680;17.942;2023-01-08T15:33:31;98963.39;;;6.23;78.10
68506;BME280;55509;50.680;17.942;2023-01-08T15:36:33;98963.17;;;6.24;78.06
68506;BME280;55509;50.680;17.942;2023-01-08T15:39:34;98963.16;;;6.25;78.01
68506;BME280;55509;50.680;17.942;2023-01-08T15:42:36;98962.16;;;6.23;78.15
68506;BME280;55509;50.680;17.942;2023-01-08T15:45:57;98955.07;;;6.20;77.79
68506;BME280;55509;50.680;17.942;2023-01-08T15:48:58;98955.95;;;6.19;78.09
68506;BME280;55509;50.680;17.942;2023-01-08T15:52:00;98956.38;;;6.16;77.96
68506;BME280;55509;50.680;17.942;2023-01-08T15:55:01;98959.23;;;6.13;78.09
68506;BME280;55509;50.680;17.942;2023-01-08T15:58:03;98959.24;;;6.12;77.62
68506;BME280;55509;50.680;17.942;2023-01-08T16:01:05;98951.20;;;6.13;77.76
68506;BME280;55509;50.680;17.942;2023-01-08T16:04:06;98942.64;;;6.13;77.60
68506;BME280;55509;50.680;17.942;2023-01-08T16:07:08;98935.46;;;6.14;77.41
68506;BME280;55509;50.680;17.942;2023-01-08T16:10:10;98927.77;;;6.15;77.47
68506;BME280;55509;50.680;17.942;2023-01-08T16:13:12;98931.45;;;6.15;76.92
68506;BME280;55509;50.680;17.942;2023-01-08T16:16:14;98931.59;;;6.16;77.16
68506;BME280;55509;50.680;17.942;2023-01-08T16:19:16;98929.94;;;6.19;76.62
68506;BME280;55509;50.680;17.942;2023-01-08T16:22:17;98927.31;;;6.20;76.49
68506;BME280;55509;50.680;17.942;2023-01-08T16:25:19;98922.44;;;6.19;76.48
68506;BME280;55509;50.680;17.942;2023-01-08T16:28:21;98921.92;;;6.19;76.74
68506;BME280;55509;50.680;17.942;2023-01-08T16:31:22;98920.74;;;6.17;76.37
68506;BME280;55509;50.680;17.942;2023-01-08T16:34:24;98923.25;;;6.14;76.70
68506;BME280;55509;50.680;17.942;2023-01-08T16:37:25;98925.02;;;6.13;76.42
68506;BME280;55509;50.680;17.942;2023-01-08T16:40:27;98925.73;;;6.12;76.73
68506;BME280;55509;50.680;17.942;2023-01-08T16:43:29;98932.24;;;6.10;76.96
68506;BME280;55509;50.680;17.942;2023-01-08T16:46:31;98934.09;;;6.05;77.25
68506;BME280;55509;50.680;17.942;2023-01-08T16:49:32;98924.53;;;6.02;77.40
68506;BME280;55509;50.680;17.942;2023-01-08T16:52:36;98924.77;;;5.99;77.39
68506;BME280;55509;50.680;17.942;2023-01-08T16:55:38;98926.94;;;5.95;77.67
68506;BME280;55509;50.680;17.942;2023-01-08T16:58:40;98922.83;;;5.92;77.92
68506;BME280;55509;50.680;17.942;2023-01-08T17:01:42;98920.38;;;5.92;77.93
68506;BME280;55509;50.680;17.942;2023-01-08T17:04:43;98921.05;;;5.93;78.01
68506;BME280;55509;50.680;17.942;2023-01-08T17:07:45;98917.09;;;5.91;77.96
68506;BME280;55509;50.680;17.942;2023-01-08T17:10:46;98918.31;;;5.91;78.30
68506;BME280;55509;50.680;17.942;2023-01-08T17:13:47;98924.56;;;5.92;77.86
68506;BME280;55509;50.680;17.942;2023-01-08T17:16:49;98935.54;;;5.93;78.13
68506;BME280;55509;50.680;17.942;2023-01-08T17:19:50;98943.02;;;5.94;78.04
68506;BME280;55509;50.680;17.942;2023-01-08T17:22:52;98952.06;;;5.95;78.23